Time;durP1;ratioP1;P1;durP2;ratioP2;P2;SDS_P1;SDS_P2;PMS_P1;PMS_P2;Temp;Humidity;BMP_temperature;BMP_pressure;BME280_temperature;BME280_humidity;BME280_pressure;Samples;Min_cycle;Max_cycle;Signal;HPM_P1;HPM_P2
2023/01/01 00:00:05;;;;;;;49.43;41.30;;;5.70;99.90;;;;;;6225738;28;20483;-65
2023/01/01 00:03:08;;;;;;;44.37;36.57;;;5.70;99.90;;;;;;6225771;28;20480;-66
2023/01/01 00:06:13;;;;;;;55.13;38.17;;;5.70;99.90;;;;;;6225337;28;20476;-64
2023/01/01 00:12:39;;;;;;;60.17;44.90;;;5.70;99.90;;;;;;6247230;28;20467;-64
2023/01/01 00:15:42;;;;;;;58.93;45.67;;;5.80;99.90;;;;;;6247897;28;20477;-64
2023/01/01 00:18:45;;;;;;;61.23;47.27;;;5.80;99.90;;;;;;6248055;28;20479;-64
2023/01/01 00:21:48;;;;;;;57.03;42.63;;;5.70;99.90;;;;;;6248826;28;20475;-64
2023/01/01 00:24:53;;;;;;;56.97;41.97;;;5.70;99.90;;;;;;6251450;28;20474;-64
2023/01/01 00:27:56;;;;;;;62.00;43.60;;;5.70;99.90;;;;;;6273907;28;20475;-64
2023/01/01 00:30:59;;;;;;;58.97;44.03;;;5.60;99.90;;;;;;6274453;28;20470;-64
2023/01/01 00:34:03;;;;;;;52.87;41.50;;;5.70;99.90;;;;;;6264052;28;20467;-64
2023/01/01 00:37:06;;;;;;;55.87;41.73;;;5.60;99.90;;;;;;6247228;28;20993;-64
2023/01/01 00:40:12;;;;;;;46.50;38.00;;;5.60;99.90;;;;;;6239373;28;20471;-64
2023/01/01 00:43:15;;;;;;;51.43;39.83;;;5.70;99.90;;;;;;6246466;28;20475;-64
2023/01/01 00:46:19;;;;;;;51.87;40.80;;;5.60;99.90;;;;;;6252564;28;20482;-64
2023/01/01 00:49:22;;;;;;;59.57;43.77;;;5.60;99.90;;;;;;6258539;28;20491;-64
2023/01/01 00:52:25;;;;;;;59.07;45.27;;;5.70;99.90;;;;;;6248881;28;20912;-64
2023/01/01 00:55:30;;;;;;;75.00;55.80;;;5.70;99.90;;;;;;6249335;28;20483;-64
2023/01/01 00:58:33;;;;;;;66.90;50.10;;;5.60;99.90;;;;;;6249464;28;20574;-64
2023/01/01 01:01:37;;;;;;;81.80;54.37;;;5.60;99.90;;;;;;6249385;28;20475;-64
2023/01/01 01:04:40;;;;;;;65.07;50.87;;;5.60;99.90;;;;;;6248974;28;20475;-64
2023/01/01 01:07:43;;;;;;;65.43;47.90;;;5.60;99.90;;;;;;6249037;28;20484;-64
2023/01/01 01:10:48;;;;;;;62.17;46.87;;;5.50;99.90;;;;;;6249217;28;20470;-64
2023/01/01 01:13:53;;;;;;;58.30;45.27;;;5.50;99.90;;;;;;6248900;28;20490;-64
2023/01/01 01:16:56;;;;;;;54.60;39.10;;;5.40;99.90;;;;;;6249665;28;20483;-64
2023/01/01 01:19:59;;;;;;;62.13;46.10;;;5.40;99.90;;;;;;6248801;28;20482;-64
2023/01/01 01:23:03;;;;;;;52.30;40.83;;;5.30;99.90;;;;;;6249707;28;20462;-64
2023/01/01 01:26:13;;;;;;;54.10;40.53;;;5.30;99.90;;;;;;6267021;28;20981;-64
2023/01/01 01:29:16;;;;;;;60.63;41.60;;;5.30;99.90;;;;;;6278673;28;20472;-64
2023/01/01 01:32:20;;;;;;;58.93;41.87;;;5.40;99.90;;;;;;6278239;28;20442;-64
2023/01/01 01:35:23;;;;;;;49.93;39.60;;;5.30;99.90;;;;;;6278599;28;20710;-64
2023/01/01 01:38:26;;;;;;;54.10;39.53;;;5.20;99.90;;;;;;6277826;28;20486;-64
2023/01/01 01:41:31;;;;;;;52.10;38.40;;;5.20;99.90;;;;;;6269264;28;20465;-64
2023/01/01 01:44:56;;;;;;;53.43;35.40;;;5.10;99.90;;;;;;6278038;28;20477;-64
2023/01/01 01:48:00;;;;;;;53.93;35.73;;;5.10;99.90;;;;;;6278069;28;20473;-64
2023/01/01 01:51:03;;;;;;;43.23;34.43;;;5.10;99.90;;;;;;6278237;28;20482;-64
2023/01/01 01:54:10;;;;;;;47.10;36.73;;;5.10;99.90;;;;;;6277837;28;20489;-64
2023/01/01 01:57:15;;;;;;;53.73;38.17;;;5.10;99.90;;;;;;6277156;28;20477;-64
2023/01/01 02:00:18;;;;;;;57.97;39.30;;;5.00;99.90;;;;;;6277522;28;20474;-64
2023/01/01 02:03:24;;;;;;;52.43;39.50;;;5.10;99.90;;;;;;6277054;28;20474;-64
2023/01/01 02:06:30;;;;;;;73.10;48.00;;;5.10;99.90;;;;;;6277531;28;20572;-64
2023/01/01 02:09:33;;;;;;;66.67;45.57;;;5.10;99.90;;;;;;6277442;28;20478;-64
2023/01/01 02:12:38;;;;;;;82.37;52.40;;;5.10;99.90;;;;;;6274182;28;20474;-64
2023/01/01 02:15:48;;;;;;;61.13;47.73;;;5.10;99.90;;;;;;6252862;28;20482;-64
2023/01/01 02:18:59;;;;;;;62.93;45.73;;;5.10;99.90;;;;;;6252251;28;20814;-63
2023/01/01 02:22:09;;;;;;;69.60;51.67;;;5.10;99.90;;;;;;6251121;28;20472;-63
2023/01/01 02:25:24;;;;;;;60.37;45.10;;;5.10;99.90;;;;;;6247177;28;20505;-63
2023/01/01 02:28:52;;;;;;;62.43;46.57;;;5.10;99.90;;;;;;6251773;28;20476;-62
2023/01/01 02:32:00;;;;;;;63.23;46.57;;;5.10;99.90;;;;;;6250357;28;20463;-62
2023/01/01 02:38:29;;;;;;;55.10;43.10;;;5.00;99.90;;;;;;6250512;28;20467;-63
2023/01/01 02:41:38;;;;;;;50.63;38.57;;;5.00;99.90;;;;;;6246283;28;21351;-62
2023/01/01 02:44:47;;;;;;;48.37;34.83;;;5.00;99.90;;;;;;6239971;28;20468;-63
2023/01/01 02:47:50;;;;;;;43.77;32.50;;;4.90;99.90;;;;;;6251414;28;20467;-62
2023/01/01 02:50:56;;;;;;;38.90;28.53;;;4.80;99.90;;;;;;6251904;28;20481;-62
2023/01/01 02:54:05;;;;;;;32.63;26.37;;;4.80;99.90;;;;;;6258427;28;20485;-62
2023/01/01 02:57:16;;;;;;;31.17;24.63;;;4.80;99.90;;;;;;6272163;28;20471;-62
2023/01/01 03:00:26;;;;;;;35.60;26.07;;;4.70;99.90;;;;;;6248392;28;20468;-62
2023/01/01 03:03:39;;;;;;;33.50;24.33;;;4.70;99.90;;;;;;6250787;28;20987;-62
2023/01/01 03:06:51;;;;;;;29.80;22.17;;;4.70;99.90;;;;;;6245697;28;20981;-62
2023/01/01 03:10:01;;;;;;;30.40;23.63;;;4.70;99.90;;;;;;6248963;28;20471;-62
2023/01/01 03:13:14;;;;;;;29.27;23.17;;;4.70;99.90;;;;;;6249953;28;20486;-63
2023/01/01 03:16:24;;;;;;;33.03;23.13;;;4.70;99.90;;;;;;6250735;28;20482;-63
2023/01/01 03:19:31;;;;;;;28.23;22.17;;;4.70;99.90;;;;;;6250684;28;20479;-61
2023/01/01 03:22:40;;;;;;;34.80;24.73;;;4.70;99.90;;;;;;6249641;28;20486;-63
2023/01/01 03:25:46;;;;;;;29.97;23.00;;;4.70;99.90;;;;;;6251093;28;20477;-62
2023/01/01 03:28:54;;;;;;;31.80;25.20;;;4.70;99.90;;;;;;6250589;28;20482;-62
2023/01/01 03:32:04;;;;;;;27.60;21.97;;;4.70;99.90;;;;;;6250628;28;20486;-62
2023/01/01 03:35:08;;;;;;;26.30;19.77;;;4.80;99.90;;;;;;6251411;28;21098;-63
2023/01/01 03:38:15;;;;;;;31.10;23.07;;;4.70;99.90;;;;;;6250763;28;20474;-63
2023/01/01 03:41:24;;;;;;;26.53;20.63;;;4.70;99.90;;;;;;6250799;28;20895;-62
2023/01/01 03:44:33;;;;;;;24.80;21.20;;;4.80;99.90;;;;;;6250523;28;20446;-62
2023/01/01 03:47:39;;;;;;;28.47;20.70;;;4.80;99.90;;;;;;6245780;28;20486;-62
2023/01/01 03:50:56;;;;;;;30.33;23.53;;;4.80;99.90;;;;;;6250870;28;20459;-63
2023/01/01 03:54:07;;;;;;;32.47;20.93;;;4.80;99.90;;;;;;6250433;28;20486;-63
2023/01/01 03:57:16;;;;;;;24.03;19.83;;;4.80;99.90;;;;;;6250005;28;20471;-63
2023/01/01 04:00:22;;;;;;;24.50;18.67;;;4.90;99.90;;;;;;6250555;28;20475;-63
2023/01/01 04:03:30;;;;;;;22.43;18.23;;;4.70;99.90;;;;;;6248863;28;21009;-63
2023/01/01 04:06:34;;;;;;;29.67;24.50;;;4.70;99.90;;;;;;6248906;28;20471;-63
2023/01/01 04:09:40;;;;;;;40.53;30.33;;;4.70;99.90;;;;;;6248476;28;21005;-62
2023/01/01 04:12:45;;;;;;;40.90;29.33;;;4.70;99.90;;;;;;6251924;28;20470;-62
2023/01/01 04:15:49;;;;;;;39.03;29.10;;;4.70;99.90;;;;;;6273651;28;20485;-63
2023/01/01 04:18:54;;;;;;;36.97;28.60;;;4.70;99.90;;;;;;6274204;28;20492;-63
2023/01/01 04:21:57;;;;;;;31.37;26.30;;;4.70;99.90;;;;;;6274213;28;20489;-63
2023/01/01 04:25:01;;;;;;;25.23;20.00;;;4.70;99.90;;;;;;6270227;28;20485;-63
2023/01/01 04:28:04;;;;;;;26.17;20.90;;;4.80;99.90;;;;;;6249024;28;20807;-63
2023/01/01 04:31:08;;;;;;;25.30;17.20;;;4.80;99.90;;;;;;6249979;28;20493;-63
2023/01/01 04:34:12;;;;;;;20.33;16.93;;;4.70;99.90;;;;;;6249812;28;20467;-63
2023/01/01 04:37:16;;;;;;;23.93;18.30;;;4.80;99.90;;;;;;6249813;28;20502;-63
2023/01/01 04:40:19;;;;;;;30.57;18.60;;;4.70;99.90;;;;;;6249558;28;20550;-63
2023/01/01 04:43:22;;;;;;;21.60;16.30;;;4.70;99.90;;;;;;6249908;28;20794;-63
2023/01/01 04:46:25;;;;;;;22.60;17.20;;;4.80;99.90;;;;;;6249693;28;20466;-63
2023/01/01 04:49:30;;;;;;;25.43;17.60;;;4.80;99.90;;;;;;6249620;28;20501;-64
2023/01/01 04:52:33;;;;;;;20.83;15.87;;;4.70;99.90;;;;;;6248969;28;20471;-63
2023/01/01 04:55:36;;;;;;;18.57;14.93;;;4.80;99.90;;;;;;6235851;28;20479;-63
2023/01/01 04:58:41;;;;;;;19.63;16.47;;;4.80;99.90;;;;;;6253472;28;20489;-63
2023/01/01 05:01:44;;;;;;;28.00;15.67;;;4.90;99.90;;;;;;6270497;28;20466;-63
2023/01/01 05:04:49;;;;;;;23.10;16.43;;;4.90;99.90;;;;;;6270930;28;20462;-63
2023/01/01 05:07:53;;;;;;;19.00;15.20;;;4.90;99.90;;;;;;6254597;28;20467;-63
2023/01/01 05:11:01;;;;;;;26.77;17.90;;;5.00;99.90;;;;;;6253062;28;20954;-63
2023/01/01 05:14:04;;;;;;;22.97;18.17;;;5.00;99.90;;;;;;6252240;28;20479;-63
2023/01/01 05:17:08;;;;;;;24.63;16.30;;;5.00;99.90;;;;;;6252367;28;20984;-63
2023/01/01 05:20:12;;;;;;;20.60;16.13;;;5.00;99.90;;;;;;6252659;28;20479;-63
2023/01/01 05:23:16;;;;;;;25.90;18.60;;;5.10;99.90;;;;;;6253289;28;20858;-63
2023/01/01 05:26:22;;;;;;;30.17;24.87;;;5.10;99.90;;;;;;6269465;28;20454;-64
2023/01/01 05:29:25;;;;;;;48.93;34.77;;;5.00;99.90;;;;;;6278353;28;20454;-63
2023/01/01 05:32:28;;;;;;;65.13;46.60;;;4.90;99.90;;;;;;6278477;28;20453;-64
2023/01/01 05:35:33;;;;;;;61.83;46.03;;;4.60;99.90;;;;;;6278662;28;20454;-64
2023/01/01 05:38:36;;;;;;;66.63;49.23;;;4.50;99.90;;;;;;6278053;28;20965;-64
2023/01/01 05:41:40;;;;;;;82.30;57.60;;;4.60;99.90;;;;;;6277849;28;20773;-64
2023/01/01 05:44:43;;;;;;;79.03;57.80;;;4.60;99.90;;;;;;6278223;28;20461;-64
2023/01/01 05:47:46;;;;;;;83.60;60.80;;;4.50;99.90;;;;;;6277743;28;20489;-64
2023/01/01 05:50:50;;;;;;;78.30;55.17;;;4.40;99.90;;;;;;6278221;28;20461;-64
2023/01/01 05:53:55;;;;;;;90.07;62.80;;;4.40;99.90;;;;;;6277709;28;20489;-63
2023/01/01 05:56:58;;;;;;;87.57;62.13;;;4.30;99.90;;;;;;6271939;28;20474;-64
2023/01/01 06:00:01;;;;;;;91.03;61.77;;;4.30;99.90;;;;;;6276205;28;20942;-64
2023/01/01 06:03:04;;;;;;;98.43;62.07;;;4.40;99.90;;;;;;6275940;28;20466;-63
2023/01/01 06:06:12;;;;;;;89.70;59.97;;;4.30;99.90;;;;;;6272476;28;21224;-62
2023/01/01 06:09:15;;;;;;;86.97;59.57;;;4.30;99.90;;;;;;6252206;28;20475;-62
2023/01/01 06:12:18;;;;;;;86.90;56.53;;;4.40;99.90;;;;;;6252461;28;20471;-63
2023/01/01 06:15:21;;;;;;;83.07;56.07;;;4.40;99.90;;;;;;6252502;28;20981;-63
2023/01/01 06:18:26;;;;;;;73.40;53.60;;;4.50;99.90;;;;;;6252142;28;20483;-63
2023/01/01 06:21:31;;;;;;;78.13;56.93;;;4.50;99.90;;;;;;6252122;28;20467;-63
2023/01/01 06:24:34;;;;;;;89.00;58.57;;;4.40;99.90;;;;;;6253194;28;20479;-62
2023/01/01 06:27:41;;;;;;;78.80;54.10;;;4.40;99.90;;;;;;6276993;28;20486;-63
2023/01/01 06:30:44;;;;;;;72.07;50.93;;;4.40;99.90;;;;;;6276905;28;20470;-62
2023/01/01 06:33:50;;;;;;;69.93;47.13;;;4.30;99.90;;;;;;6276908;28;20485;-63
2023/01/01 06:36:55;;;;;;;63.73;46.53;;;4.40;99.90;;;;;;6276713;28;20471;-63
2023/01/01 06:40:06;;;;;;;66.50;47.37;;;4.30;99.90;;;;;;6275050;28;20600;-63
2023/01/01 06:43:09;;;;;;;64.13;44.63;;;4.40;99.90;;;;;;6274912;28;21009;-63
2023/01/01 06:46:16;;;;;;;69.67;46.17;;;4.50;99.90;;;;;;6274522;28;20473;-63
2023/01/01 06:49:19;;;;;;;67.53;47.23;;;4.50;99.90;;;;;;6274813;28;20478;-63
2023/01/01 06:52:24;;;;;;;60.27;42.87;;;4.50;99.90;;;;;;6274730;28;20946;-64
2023/01/01 06:55:27;;;;;;;60.40;42.57;;;4.50;99.90;;;;;;6276200;28;20462;-63
2023/01/01 06:58:30;;;;;;;60.63;43.20;;;4.60;99.90;;;;;;6276034;28;20470;-63
2023/01/01 07:01:35;;;;;;;60.10;42.53;;;4.70;99.90;;;;;;6271566;28;20482;-62
2023/01/01 07:04:39;;;;;;;55.57;40.63;;;4.80;99.90;;;;;;6275197;28;20798;-63
2023/01/01 07:07:43;;;;;;;60.40;41.47;;;4.80;99.90;;;;;;6276216;28;20493;-63
2023/01/01 07:10:46;;;;;;;59.67;42.60;;;4.90;99.90;;;;;;6292802;28;20470;-62
2023/01/01 07:13:49;;;;;;;56.23;40.20;;;4.90;99.90;;;;;;6275416;28;20467;-62
2023/01/01 07:16:53;;;;;;;68.53;42.03;;;4.90;99.90;;;;;;6250762;28;20471;-62
2023/01/01 07:19:56;;;;;;;57.13;41.33;;;5.00;99.90;;;;;;6250835;28;20488;-62
2023/01/01 07:23:01;;;;;;;52.83;38.70;;;5.00;99.90;;;;;;6250218;28;20765;-63
2023/01/01 07:26:04;;;;;;;54.43;38.20;;;5.10;99.90;;;;;;6263318;28;20477;-63
2023/01/01 07:29:08;;;;;;;55.97;39.63;;;5.30;99.90;;;;;;6275423;28;20470;-63
2023/01/01 07:32:13;;;;;;;56.03;39.37;;;5.40;99.90;;;;;;6275533;28;20507;-63
2023/01/01 07:35:16;;;;;;;56.70;41.43;;;5.50;99.90;;;;;;6275733;28;20508;-63
2023/01/01 07:38:21;;;;;;;62.83;42.40;;;5.60;99.90;;;;;;6274909;28;20466;-63
2023/01/01 07:41:24;;;;;;;57.60;40.03;;;5.70;99.90;;;;;;6275478;28;20495;-64
2023/01/01 07:44:27;;;;;;;55.80;39.83;;;5.90;99.90;;;;;;6275068;28;20465;-63
2023/01/01 07:47:31;;;;;;;57.57;38.50;;;6.00;99.90;;;;;;6275096;28;20462;-64
2023/01/01 07:50:37;;;;;;;62.37;41.40;;;6.20;99.90;;;;;;6275344;28;20465;-63
2023/01/01 07:53:41;;;;;;;52.13;38.27;;;6.30;99.90;;;;;;6275204;28;20486;-64
2023/01/01 07:56:44;;;;;;;49.87;37.10;;;6.40;99.90;;;;;;6274657;28;20970;-64
2023/01/01 07:59:47;;;;;;;50.30;36.70;;;6.60;99.90;;;;;;6275020;28;20485;-64
2023/01/01 08:02:51;;;;;;;43.70;36.50;;;6.70;99.90;;;;;;6274278;28;20802;-64
2023/01/01 08:05:54;;;;;;;49.10;35.97;;;6.90;99.90;;;;;;6275603;28;20552;-64
2023/01/01 08:08:59;;;;;;;42.30;34.20;;;7.00;99.90;;;;;;6274605;28;20478;-64
2023/01/01 08:12:02;;;;;;;44.73;31.23;;;7.10;99.90;;;;;;6274563;28;20471;-64
2023/01/01 08:15:06;;;;;;;42.17;31.60;;;7.30;99.90;;;;;;6251824;28;20965;-63
2023/01/01 08:18:09;;;;;;;37.50;31.10;;;7.50;99.90;;;;;;6249844;28;20478;-63
2023/01/01 08:21:13;;;;;;;39.97;29.20;;;7.50;99.90;;;;;;6249498;28;20474;-63
2023/01/01 08:24:17;;;;;;;40.70;30.40;;;7.70;99.90;;;;;;6249943;28;20475;-63
2023/01/01 08:27:20;;;;;;;33.63;28.43;;;7.80;99.90;;;;;;6273782;28;20485;-63
2023/01/01 08:30:24;;;;;;;36.07;28.33;;;7.90;99.90;;;;;;6274512;28;20808;-63
2023/01/01 08:33:27;;;;;;;41.50;30.10;;;8.00;99.90;;;;;;6275262;28;20999;-63
2023/01/01 08:36:30;;;;;;;37.10;28.10;;;8.10;99.90;;;;;;6279564;28;20481;-64
2023/01/01 08:39:35;;;;;;;27.03;22.97;;;8.10;99.90;;;;;;6279573;28;20512;-64
2023/01/01 08:42:38;;;;;;;26.70;21.07;;;8.10;99.90;;;;;;6279679;28;20596;-63
2023/01/01 08:45:41;;;;;;;25.40;20.77;;;8.10;99.90;;;;;;6279812;28;20476;-64
2023/01/01 08:48:44;;;;;;;23.53;17.70;;;8.10;99.90;;;;;;6279728;28;20469;-64
2023/01/01 08:51:48;;;;;;;15.33;13.33;;;8.10;99.90;;;;;;6279439;28;20485;-64
2023/01/01 08:54:52;;;;;;;14.63;10.97;;;8.20;99.90;;;;;;6279255;28;20477;-64
2023/01/01 08:57:56;;;;;;;13.80;11.00;;;8.30;99.90;;;;;;6279030;28;20764;-63
2023/01/01 09:00:59;;;;;;;10.30;9.10;;;8.50;99.90;;;;;;6279009;28;20476;-63
2023/01/01 09:04:02;;;;;;;11.70;10.30;;;8.80;99.90;;;;;;6278949;28;20541;-64
2023/01/01 09:07:05;;;;;;;17.80;10.70;;;9.10;99.90;;;;;;6278689;28;20481;-63
2023/01/01 09:10:10;;;;;;;15.07;12.43;;;9.30;99.90;;;;;;6274466;28;21253;-63
2023/01/01 09:13:15;;;;;;;13.23;11.30;;;9.30;99.90;;;;;;6271684;28;20471;-63
2023/01/01 09:16:18;;;;;;;9.73;8.77;;;9.40;99.90;;;;;;6253858;28;20496;-63
2023/01/01 09:19:22;;;;;;;12.40;10.17;;;9.40;99.90;;;;;;6254189;28;20479;-63
2023/01/01 09:22:25;;;;;;;10.80;9.63;;;9.40;99.90;;;;;;6253739;28;20474;-63
2023/01/01 09:25:30;;;;;;;12.63;10.17;;;9.30;99.90;;;;;;6275257;28;20462;-63
2023/01/01 09:28:33;;;;;;;9.80;8.80;;;9.30;99.90;;;;;;6305503;28;20465;-63
2023/01/01 09:31:36;;;;;;;10.77;8.80;;;9.30;99.90;;;;;;6279118;28;20465;-63
2023/01/01 09:34:39;;;;;;;10.20;8.60;;;9.30;99.90;;;;;;6278845;28;20481;-64
2023/01/01 09:37:43;;;;;;;10.50;8.03;;;9.40;99.90;;;;;;6279005;28;20470;-63
2023/01/01 09:40:55;;;;;;;44.33;34.00;;;9.40;99.90;;;;;;6279460;28;20473;-63
2023/01/01 09:44:03;;;;;;;46.23;37.07;;;9.50;99.90;;;;;;6278507;28;20470;-63
2023/01/01 09:47:16;;;;;;;47.20;40.00;;;9.50;99.90;;;;;;6278184;28;20470;-63
2023/01/01 09:50:23;;;;;;;50.63;39.50;;;9.50;99.90;;;;;;6278702;28;20446;-63
2023/01/01 09:53:31;;;;;;;56.43;45.53;;;9.50;99.90;;;;;;6277936;28;20418;-63
2023/01/01 09:56:38;;;;;;;53.80;43.60;;;9.70;99.90;;;;;;6277986;28;20488;-63
2023/01/01 09:59:41;;;;;;;51.57;41.87;;;9.90;99.90;;;;;;6277744;28;20477;-64
2023/01/01 10:02:58;;;;;;;48.70;39.40;;;10.30;99.90;;;;;;6277539;28;20470;-64
2023/01/01 10:06:09;;;;;;;46.93;39.70;;;10.40;99.90;;;;;;6277645;28;20472;-64
2023/01/01 10:09:21;;;;;;;42.43;36.00;;;10.40;99.90;;;;;;6277292;28;20997;-64
2023/01/01 10:12:36;;;;;;;39.37;33.83;;;10.30;99.90;;;;;;6273183;28;20576;-64
2023/01/01 10:15:45;;;;;;;42.50;34.07;;;10.30;99.90;;;;;;6252797;28;20475;-64
2023/01/01 10:18:52;;;;;;;35.60;30.17;;;10.20;99.90;;;;;;6252773;28;20562;-64
2023/01/01 10:22:01;;;;;;;40.93;33.10;;;10.10;99.90;;;;;;6252385;28;20824;-64
2023/01/01 10:25:14;;;;;;;42.87;33.27;;;10.10;99.90;;;;;;6257355;28;20568;-64
2023/01/01 10:28:25;;;;;;;38.57;31.17;;;10.10;99.90;;;;;;6277244;28;20526;-64
2023/01/01 10:31:32;;;;;;;32.43;25.33;;;10.20;99.90;;;;;;6278606;28;20485;-64
2023/01/01 10:34:36;;;;;;;33.07;25.23;;;10.20;99.90;;;;;;6277922;28;20895;-65
2023/01/01 10:37:39;;;;;;;32.50;28.30;;;10.30;99.90;;;;;;6263818;28;20475;-64
2023/01/01 10:40:43;;;;;;;33.80;28.43;;;10.40;99.90;;;;;;6251616;28;20467;-65
2023/01/01 10:43:48;;;;;;;31.60;25.63;;;10.50;99.90;;;;;;6252052;28;20526;-65
2023/01/01 10:46:57;;;;;;;32.53;24.97;;;10.50;99.90;;;;;;6251640;28;20490;-65
2023/01/01 10:50:06;;;;;;;34.30;25.03;;;10.60;99.90;;;;;;6251831;28;20471;-65
2023/01/01 10:53:20;;;;;;;39.87;28.30;;;10.80;99.90;;;;;;6251915;28;20463;-65
2023/01/01 10:56:27;;;;;;;36.63;26.80;;;11.10;99.90;;;;;;6251194;28;20447;-65
2023/01/01 10:59:38;;;;;;;32.23;24.47;;;11.40;99.90;;;;;;6248125;28;20478;-66
2023/01/01 11:02:41;;;;;;;25.10;21.77;;;11.60;99.80;;;;;;6235342;28;20468;-64
2023/01/01 11:06:04;;;;;;;25.00;21.80;;;11.80;99.20;;;;;;6226975;28;20471;-63
2023/01/01 11:09:25;;;;;;;21.90;19.50;;;12.00;98.60;;;;;;6240525;28;20463;-63
2023/01/01 11:12:33;;;;;;;22.97;19.63;;;12.10;98.30;;;;;;6251667;28;20554;-64
2023/01/01 11:15:58;;;;;;;27.90;21.23;;;12.20;98.00;;;;;;6250994;28;20592;-65
2023/01/01 11:19:04;;;;;;;24.03;18.97;;;12.30;97.50;;;;;;6238101;28;20502;-65
2023/01/01 11:22:16;;;;;;;23.40;19.27;;;12.40;97.30;;;;;;6251349;28;20478;-65
2023/01/01 11:25:22;;;;;;;26.70;19.57;;;12.40;96.90;;;;;;6251275;28;20544;-64
2023/01/01 11:28:26;;;;;;;19.80;17.70;;;12.40;97.60;;;;;;6251038;28;20818;-64
2023/01/01 11:31:35;;;;;;;21.30;18.00;;;12.70;97.10;;;;;;6250867;28;20811;-64
2023/01/01 11:34:40;;;;;;;19.97;17.07;;;12.90;96.70;;;;;;6250598;28;20467;-64
2023/01/01 11:37:46;;;;;;;20.47;15.67;;;13.50;97.30;;;;;;6250557;28;20482;-64
2023/01/01 11:40:52;;;;;;;16.97;15.17;;;17.40;93.50;;;;;;6250474;28;20478;-64
2023/01/01 11:43:55;;;;;;;16.57;14.97;;;22.40;77.00;;;;;;6250238;28;20982;-65
2023/01/01 11:47:00;;;;;;;20.83;18.80;;;26.50;51.90;;;;;;6250196;28;20239;-65
2023/01/01 11:50:18;;;;;;;21.93;19.73;;;29.60;40.80;;;;;;6250540;28;20228;-66
2023/01/01 11:53:29;;;;;;;24.00;21.67;;;31.90;34.00;;;;;;6250349;28;20223;-65
2023/01/01 11:56:32;;;;;;;23.75;21.40;;;34.00;29.30;;;;;;6262773;28;20172;-66
2023/01/01 11:59:43;;;;;;;23.85;21.70;;;35.40;26.60;;;;;;6259410;28;20243;-66
2023/01/01 12:02:55;;;;;;;22.95;21.05;;;36.40;24.80;;;;;;6226321;28;20237;-66
2023/01/01 12:06:04;;;;;;;20.80;19.00;;;35.80;23.80;;;;;;6244094;28;20687;-66
2023/01/01 12:09:14;;;;;;;22.30;20.20;;;32.90;25.10;;;;;;6249607;28;20223;-65
2023/01/01 12:12:26;;;;;;;22.57;20.40;;;30.30;27.80;;;;;;6250131;28;20613;-64
2023/01/01 12:15:36;;;;;;;20.80;18.70;;;30.90;27.90;;;;;;6244226;28;20231;-64
2023/01/01 12:18:46;;;;;;;21.50;19.63;;;32.90;26.50;;;;;;6249395;28;20293;-63
2023/01/01 12:21:55;;;;;;;20.45;18.42;;;34.60;25.10;;;;;;6240126;28;20228;-63
2023/01/01 12:24:59;;;;;;;21.90;19.80;;;35.00;23.80;;;;;;6253539;28;20249;-65
2023/01/01 12:28:10;;;;;;;18.30;16.70;;;33.20;24.70;;;;;;6262177;28;20239;-64
2023/01/01 12:31:23;;;;;;;18.57;16.87;;;31.00;26.30;;;;;;6249102;28;20235;-64
2023/01/01 12:34:33;;;;;;;16.83;15.37;;;30.60;27.40;;;;;;6249458;28;20239;-65
2023/01/01 12:37:51;;;;;;;15.93;14.63;;;31.70;26.40;;;;;;6244625;28;20237;-65
2023/01/01 12:41:06;;;;;;;16.30;14.90;;;33.20;25.60;;;;;;6248615;28;20224;-65
2023/01/01 12:44:20;;;;;;;16.17;14.68;;;35.00;24.20;;;;;;6249606;28;20231;-65
2023/01/01 12:47:34;;;;;;;16.30;14.20;;;36.00;23.10;;;;;;6247854;28;20228;-66
2023/01/01 12:50:48;;;;;;;15.35;14.05;;;36.90;22.70;;;;;;6249911;28;20238;-65
2023/01/01 12:54:12;;;;;;;15.77;14.20;;;37.40;21.70;;;;;;6246849;28;20571;-65
2023/01/01 12:57:24;;;;;;;15.35;14.10;;;37.80;21.20;;;;;;6249526;28;20248;-65
2023/01/01 13:00:29;;;;;;;16.52;15.13;;;37.80;21.00;;;;;;6248848;28;20231;-65
2023/01/01 13:03:36;;;;;;;15.57;14.18;;;37.00;21.40;;;;;;6251911;28;20227;-64
2023/01/01 13:06:46;;;;;;;18.95;17.25;;;37.10;21.40;;;;;;6248293;28;20300;-65
2023/01/01 13:09:50;;;;;;;19.67;17.98;;;35.40;21.80;;;;;;6250967;28;20293;-65
2023/01/01 13:12:54;;;;;;;21.73;19.70;;;32.60;24.00;;;;;;6249936;28;20660;-66
2023/01/01 13:15:58;;;;;;;21.70;19.70;;;29.60;26.70;;;;;;6236629;28;20557;-65
2023/01/01 13:19:01;;;;;;;20.67;18.80;;;27.70;29.10;;;;;;6249085;28;20259;-65
2023/01/01 13:22:42;;;;;;;19.40;17.60;;;27.40;30.00;;;;;;6253348;28;20227;-64
2023/01/01 13:25:45;;;;;;;19.07;17.30;;;29.00;28.90;;;;;;6257840;28;20665;-64
2023/01/01 13:29:32;;;;;;;29.73;26.83;;;31.00;27.10;;;;;;6275730;28;20333;-64
2023/01/01 13:33:16;;;;;;;36.63;33.73;;;31.90;26.10;;;;;;6277254;28;20234;-64
2023/01/01 13:36:31;;;;;;;33.87;30.93;;;29.90;27.20;;;;;;6277148;28;20227;-64
2023/01/01 13:39:56;;;;;;;25.90;23.60;;;29.40;28.30;;;;;;6276915;28;20235;-64
2023/01/01 13:43:07;;;;;;;26.37;23.80;;;30.70;27.60;;;;;;6277782;28;20242;-64
2023/01/01 13:46:10;;;;;;;17.70;16.07;;;31.90;26.60;;;;;;6277831;28;20235;-64
2023/01/01 13:49:26;;;;;;;19.48;17.65;;;32.60;25.20;;;;;;6277956;28;20243;-64
2023/01/01 13:53:05;;;;;;;18.45;16.95;;;33.20;25.00;;;;;;6277619;28;20231;-64
2023/01/01 13:56:34;;;;;;;20.63;18.63;;;33.50;24.60;;;;;;6277960;28;20238;-66
2023/01/01 13:59:52;;;;;;;21.42;19.20;;;33.70;24.50;;;;;;6271206;28;20304;-65
2023/01/01 14:02:59;;;;;;;31.33;27.05;;;33.60;24.40;;;;;;6254259;28;20242;-65
2023/01/01 14:06:09;;;;;;;38.80;33.70;;;33.60;24.20;;;;;;6260523;28;20223;-63
2023/01/01 14:09:14;;;;;;;22.40;20.10;;;33.50;24.30;;;;;;6269136;28;20242;-63
2023/01/01 14:12:20;;;;;;;22.25;20.17;;;33.40;24.20;;;;;;6273488;28;20228;-64
2023/01/01 14:15:27;;;;;;;19.70;17.70;;;33.00;24.40;;;;;;6255082;28;20624;-65
2023/01/01 14:18:34;;;;;;;21.40;19.43;;;32.70;24.80;;;;;;6253026;28;20231;-64
2023/01/01 14:21:39;;;;;;;18.87;17.07;;;32.10;25.30;;;;;;6256336;28;20235;-64
2023/01/01 14:24:45;;;;;;;19.37;17.57;;;31.00;26.10;;;;;;6257799;28;20231;-63
2023/01/01 14:27:50;;;;;;;20.93;18.97;;;29.50;27.30;;;;;;6275352;28;20300;-63
2023/01/01 14:30:54;;;;;;;18.47;16.57;;;28.00;29.00;;;;;;6277736;28;20246;-64
2023/01/01 14:33:58;;;;;;;18.10;16.47;;;26.60;30.80;;;;;;6276748;28;20228;-66
2023/01/01 14:37:03;;;;;;;19.73;17.77;;;25.20;32.90;;;;;;6276922;28;20655;-65
2023/01/01 14:40:15;;;;;;;18.67;16.77;;;23.90;34.80;;;;;;6276834;28;20228;-64
2023/01/01 14:43:20;;;;;;;20.57;18.40;;;22.60;36.50;;;;;;6276390;28;20255;-65
2023/01/01 14:46:26;;;;;;;17.50;15.70;;;21.40;38.70;;;;;;6276714;28;20249;-64
2023/01/01 14:49:33;;;;;;;17.67;15.87;;;20.30;40.80;;;;;;6275921;28;20615;-63
2023/01/01 14:52:36;;;;;;;16.07;14.20;;;19.40;42.60;;;;;;6276390;28;20238;-62
2023/01/01 14:55:42;;;;;;;16.10;14.40;;;18.60;44.20;;;;;;6276557;28;20240;-64
2023/01/01 14:58:46;;;;;;;16.17;13.83;;;17.90;45.80;;;;;;6276211;28;20477;-65
2023/01/01 15:01:59;;;;;;;16.30;13.40;;;17.40;47.40;;;;;;6252313;28;20471;-65
2023/01/01 15:05:28;;;;;;;19.00;15.90;;;16.80;48.50;;;;;;6251555;28;20795;-64
2023/01/01 15:08:37;;;;;;;21.40;17.13;;;16.40;50.10;;;;;;6250905;28;20463;-64
2023/01/01 15:11:40;;;;;;;22.23;19.17;;;15.90;51.40;;;;;;6251157;28;20458;-64
2023/01/01 15:14:45;;;;;;;20.27;17.00;;;15.60;52.60;;;;;;6251488;28;20462;-64
2023/01/01 15:17:48;;;;;;;38.73;27.07;;;15.20;53.70;;;;;;6251046;28;20471;-65
2023/01/01 15:20:53;;;;;;;45.80;35.30;;;15.00;55.00;;;;;;6250783;28;20466;-67
2023/01/01 15:23:59;;;;;;;131.27;98.30;;;14.80;56.40;;;;;;6251195;28;20485;-65
2023/01/01 15:27:05;;;;;;;50.50;38.77;;;14.50;58.10;;;;;;6271866;28;20795;-65
2023/01/01 15:30:24;;;;;;;26.60;20.10;;;14.30;59.30;;;;;;6275663;28;20568;-65
2023/01/01 15:33:27;;;;;;;20.83;16.23;;;14.10;62.50;;;;;;6276537;28;20470;-66
2023/01/01 15:36:32;;;;;;;22.47;16.93;;;13.80;64.30;;;;;;6263575;28;20481;-66
2023/01/01 15:39:45;;;;;;;18.60;16.17;;;13.60;66.70;;;;;;6252507;28;20998;-65
2023/01/01 15:43:13;;;;;;;15.57;13.70;;;13.40;69.30;;;;;;6250948;28;20466;-63
2023/01/01 15:46:29;;;;;;;18.47;14.40;;;13.10;72.60;;;;;;6251912;28;20490;-66
2023/01/01 15:49:34;;;;;;;18.23;14.80;;;12.90;75.80;;;;;;6251277;28;20485;-65
2023/01/01 15:52:38;;;;;;;18.00;15.07;;;12.70;79.10;;;;;;6250551;28;20471;-65
2023/01/01 15:55:44;;;;;;;16.37;14.57;;;12.50;81.60;;;;;;6251146;28;20586;-64
2023/01/01 15:58:52;;;;;;;16.70;14.20;;;12.30;84.10;;;;;;6250355;28;20474;-65
2023/01/01 16:02:14;;;;;;;22.07;15.47;;;12.20;86.30;;;;;;6249610;28;20799;-64